WI64 weather

Iola Emergency Heliport
Iola, Wisconsin, United States

Public forecast

Using degrees Fahrenheit for public forecast. Weather courtesy of forecast.io.

Closest aviation weather report (METAR) to Iola Emergency Heliport

Closest report is Waupaca Municipal Airport, 11.6 nm (21.4 km) SSE. Retrieved 2020/02/26 18:55 UTC (27 minutes ago):

KPCZ 261855Z AUTO 35010G14KT 10SM OVC034 M02/M11 A3013 RMK AO2 T10201108

Closest aviation forecast (TAF) to Iola Emergency Heliport

Closest forecast is Central Wisconsin Airport, 27.9 nm (51.7 km) NW. Retrieved 2020/02/26 18:42 UTC (40 minutes ago):

TAF KCWA 261740Z 2618/2718 35010G15KT P6SM SCT025 BKN035 TEMPO 2618/2619 BKN025 FM261900 34010G15KT P6SM -SHSN BKN022 FM262300 34008KT P6SM -SHSN SCT024 BKN030 FM270100 33006KT P6SM SCT024 SCT060 FM271600 31009G15KT P6SM SCT060